Thong Pha Phum, Thailand
Current Conditions -  °F | °C
As of 1:00 PM on Monday 26 Jan 2015 (Local Time) from VTBD Reporting Station
Broken Clouds Broken Clouds  
Wind Chill: 88°   Ceiling: 30000
Heat Index: 94°   Visibility: 4mi
Dew Point: 72°   Wind: 3mph
Humidity: 58%   Direction: 360°N
Pressure: 29.94"   Gusts: NA
Location:  14.75°N, 98.63°E
Report Text: VTBD 260600Z 36003KT 290V180 6000 FEW020 BKN300 31/22 Q1014 NOSIG
Loading
Personal Weather Stations






























Interactive Weather Map New forecast layout! Learn more

10-Day Weather Forecast

Advertisements
Track Severe Weather on mobile